sensor_id;sensor_type;location;lat;lon;timestamp;temperature;humidity
7048;DHT22;3565;53.254;10.352;2023-03-11T00:00:49;0.10;99.90
7048;DHT22;3565;53.254;10.352;2023-03-11T00:03:19;0.10;99.90
7048;DHT22;3565;53.254;10.352;2023-03-11T00:05:52;0.10;99.90
7048;DHT22;3565;53.254;10.352;2023-03-11T00:08:22;0.00;99.90
7048;DHT22;3565;53.254;10.352;2023-03-11T00:10:54;0.10;99.90
7048;DHT22;3565;53.254;10.352;2023-03-11T00:13:25;0.10;99.90
7048;DHT22;3565;53.254;10.352;2023-03-11T00:15:56;0.10;99.90
7048;DHT22;3565;53.254;10.352;2023-03-11T00:18:27;0.10;99.90
7048;DHT22;3565;53.254;10.352;2023-03-11T00:23:37;0.10;99.90
7048;DHT22;3565;53.254;10.352;2023-03-11T00:26:07;0.10;99.90
7048;DHT22;3565;53.254;10.352;2023-03-11T00:28:36;0.10;99.90
7048;DHT22;3565;53.254;10.352;2023-03-11T00:33:43;0.00;99.90
7048;DHT22;3565;53.254;10.352;2023-03-11T00:36:19;0.00;99.90
7048;DHT22;3565;53.254;10.352;2023-03-11T00:38:48;0.00;99.90
7048;DHT22;3565;53.254;10.352;2023-03-11T00:41:17;0.00;99.90
7048;DHT22;3565;53.254;10.352;2023-03-11T00:43:46;0.00;99.90
7048;DHT22;3565;53.254;10.352;2023-03-11T00:46:15;0.00;99.90
7048;DHT22;3565;53.254;10.352;2023-03-11T00:48:44;0.10;99.90
7048;DHT22;3565;53.254;10.352;2023-03-11T00:51:15;0.00;99.90
7048;DHT22;3565;53.254;10.352;2023-03-11T00:53:44;0.00;99.90
7048;DHT22;3565;53.254;10.352;2023-03-11T00:56:16;0.00;99.90
7048;DHT22;3565;53.254;10.352;2023-03-11T01:01:24;0.00;99.90
7048;DHT22;3565;53.254;10.352;2023-03-11T01:03:53;0.00;99.90
7048;DHT22;3565;53.254;10.352;2023-03-11T01:06:22;0.10;99.90
7048;DHT22;3565;53.254;10.352;2023-03-11T01:08:51;0.10;99.90
7048;DHT22;3565;53.254;10.352;2023-03-11T01:11:21;0.10;99.90
7048;DHT22;3565;53.254;10.352;2023-03-11T01:16:27;0.10;99.90
7048;DHT22;3565;53.254;10.352;2023-03-11T01:18:56;0.10;99.90
7048;DHT22;3565;53.254;10.352;2023-03-11T01:21:26;0.10;99.90
7048;DHT22;3565;53.254;10.352;2023-03-11T01:23:56;0.10;99.90
7048;DHT22;3565;53.254;10.352;2023-03-11T01:26:25;0.10;99.90
7048;DHT22;3565;53.254;10.352;2023-03-11T01:28:54;0.10;99.90
7048;DHT22;3565;53.254;10.352;2023-03-11T01:31:23;0.10;99.90
7048;DHT22;3565;53.254;10.352;2023-03-11T01:33:53;0.20;99.90
7048;DHT22;3565;53.254;10.352;2023-03-11T01:36:23;0.10;99.90
7048;DHT22;3565;53.254;10.352;2023-03-11T01:38:53;0.10;99.90
7048;DHT22;3565;53.254;10.352;2023-03-11T01:41:22;0.10;99.90
7048;DHT22;3565;53.254;10.352;2023-03-11T01:43:53;0.10;99.90
7048;DHT22;3565;53.254;10.352;2023-03-11T01:46:23;0.10;99.90
7048;DHT22;3565;53.254;10.352;2023-03-11T01:48:54;0.10;99.90
7048;DHT22;3565;53.254;10.352;2023-03-11T01:51:28;0.10;99.90
7048;DHT22;3565;53.254;10.352;2023-03-11T01:53:59;0.10;99.90
7048;DHT22;3565;53.254;10.352;2023-03-11T01:56:30;0.10;99.90
7048;DHT22;3565;53.254;10.352;2023-03-11T01:58:59;0.10;99.90
7048;DHT22;3565;53.254;10.352;2023-03-11T02:01:29;0.10;99.90
7048;DHT22;3565;53.254;10.352;2023-03-11T02:03:58;0.10;99.90
7048;DHT22;3565;53.254;10.352;2023-03-11T02:06:30;0.10;99.90
7048;DHT22;3565;53.254;10.352;2023-03-11T02:09:00;0.70;99.90
7048;DHT22;3565;53.254;10.352;2023-03-11T02:11:30;0.10;99.90
7048;DHT22;3565;53.254;10.352;2023-03-11T02:14:01;0.10;99.90
7048;DHT22;3565;53.254;10.352;2023-03-11T02:16:31;0.10;99.90
7048;DHT22;3565;53.254;10.352;2023-03-11T02:19:06;0.20;99.90
7048;DHT22;3565;53.254;10.352;2023-03-11T02:21:35;0.10;99.90
7048;DHT22;3565;53.254;10.352;2023-03-11T02:24:09;0.10;99.90
7048;DHT22;3565;53.254;10.352;2023-03-11T02:29:19;0.10;99.90
7048;DHT22;3565;53.254;10.352;2023-03-11T02:31:49;0.10;99.90
7048;DHT22;3565;53.254;10.352;2023-03-11T02:34:22;0.10;99.90
7048;DHT22;3565;53.254;10.352;2023-03-11T02:36:52;0.20;99.90
7048;DHT22;3565;53.254;10.352;2023-03-11T02:39:30;0.10;99.90
7048;DHT22;3565;53.254;10.352;2023-03-11T02:42:00;0.10;99.90
7048;DHT22;3565;53.254;10.352;2023-03-11T02:44:29;0.10;99.90
7048;DHT22;3565;53.254;10.352;2023-03-11T02:46:59;0.10;99.90
7048;DHT22;3565;53.254;10.352;2023-03-11T02:49:29;0.10;99.90
7048;DHT22;3565;53.254;10.352;2023-03-11T02:51:59;0.10;99.90
7048;DHT22;3565;53.254;10.352;2023-03-11T02:54:28;0.10;99.90
7048;DHT22;3565;53.254;10.352;2023-03-11T02:56:57;0.10;99.90
7048;DHT22;3565;53.254;10.352;2023-03-11T02:59:27;0.10;99.90
7048;DHT22;3565;53.254;10.352;2023-03-11T03:01:57;0.10;99.90
7048;DHT22;3565;53.254;10.352;2023-03-11T03:04:26;0.10;99.90
7048;DHT22;3565;53.254;10.352;2023-03-11T03:06:55;0.10;99.90
7048;DHT22;3565;53.254;10.352;2023-03-11T03:09:25;0.10;99.90
7048;DHT22;3565;53.254;10.352;2023-03-11T03:11:55;0.10;99.90
7048;DHT22;3565;53.254;10.352;2023-03-11T03:14:24;0.10;99.90
7048;DHT22;3565;53.254;10.352;2023-03-11T03:16:53;0.10;99.90
7048;DHT22;3565;53.254;10.352;2023-03-11T03:19:22;0.20;99.90
7048;DHT22;3565;53.254;10.352;2023-03-11T03:21:51;0.10;99.90
7048;DHT22;3565;53.254;10.352;2023-03-11T03:26:58;0.10;99.90
7048;DHT22;3565;53.254;10.352;2023-03-11T03:29:28;0.10;99.90
7048;DHT22;3565;53.254;10.352;2023-03-11T03:34:35;0.10;99.90
7048;DHT22;3565;53.254;10.352;2023-03-11T03:37:04;0.10;99.90
7048;DHT22;3565;53.254;10.352;2023-03-11T03:39:33;0.10;99.90
7048;DHT22;3565;53.254;10.352;2023-03-11T03:44:39;0.10;99.90
7048;DHT22;3565;53.254;10.352;2023-03-11T03:47:08;0.10;99.90
7048;DHT22;3565;53.254;10.352;2023-03-11T03:49:38;0.10;93.80
7048;DHT22;3565;53.254;10.352;2023-03-11T03:52:08;0.00;72.80
7048;DHT22;3565;53.254;10.352;2023-03-11T03:57:19;0.00;28.70
7048;DHT22;3565;53.254;10.352;2023-03-11T03:59:48;0.00;44.50
7048;DHT22;3565;53.254;10.352;2023-03-11T04:02:17;0.00;17.90
7048;DHT22;3565;53.254;10.352;2023-03-11T04:04:47;-0.10;1.00
7048;DHT22;3565;53.254;10.352;2023-03-11T04:07:16;-0.10;1.00
7048;DHT22;3565;53.254;10.352;2023-03-11T04:12:24;-0.10;1.00
7048;DHT22;3565;53.254;10.352;2023-03-11T04:14:53;-0.10;1.00
7048;DHT22;3565;53.254;10.352;2023-03-11T04:17:22;-0.10;1.00
7048;DHT22;3565;53.254;10.352;2023-03-11T04:19:52;-0.10;1.00
7048;DHT22;3565;53.254;10.352;2023-03-11T04:22:21;-0.10;1.00
7048;DHT22;3565;53.254;10.352;2023-03-11T04:24:50;-0.10;1.00
7048;DHT22;3565;53.254;10.352;2023-03-11T04:27:19;-0.10;1.00
7048;DHT22;3565;53.254;10.352;2023-03-11T04:29:48;-0.10;1.00
7048;DHT22;3565;53.254;10.352;2023-03-11T04:32:17;-0.10;1.00
7048;DHT22;3565;53.254;10.352;2023-03-11T04:34:46;-0.10;1.00
7048;DHT22;3565;53.254;10.352;2023-03-11T04:37:15;-0.10;1.00
7048;DHT22;3565;53.254;10.352;2023-03-11T04:39:44;-0.20;1.00
7048;DHT22;3565;53.254;10.352;2023-03-11T04:42:13;-0.30;1.00
7048;DHT22;3565;53.254;10.352;2023-03-11T04:44:43;-0.30;1.00
7048;DHT22;3565;53.254;10.352;2023-03-11T04:47:12;-0.20;1.00
7048;DHT22;3565;53.254;10.352;2023-03-11T04:49:41;-0.20;1.00
7048;DHT22;3565;53.254;10.352;2023-03-11T04:52:11;-0.20;1.00
7048;DHT22;3565;53.254;10.352;2023-03-11T04:54:40;-0.20;1.00
7048;DHT22;3565;53.254;10.352;2023-03-11T04:57:09;-0.20;1.00
7048;DHT22;3565;53.254;10.352;2023-03-11T04:59:38;-0.20;1.00
7048;DHT22;3565;53.254;10.352;2023-03-11T05:02:07;-0.20;1.00
7048;DHT22;3565;53.254;10.352;2023-03-11T05:04:36;-0.30;1.00
7048;DHT22;3565;53.254;10.352;2023-03-11T05:07:06;-0.30;1.00
7048;DHT22;3565;53.254;10.352;2023-03-11T05:09:35;-0.20;1.00
7048;DHT22;3565;53.254;10.352;2023-03-11T05:12:05;-0.20;1.00
7048;DHT22;3565;53.254;10.352;2023-03-11T05:14:36;-0.20;1.00
7048;DHT22;3565;53.254;10.352;2023-03-11T05:17:05;-0.20;1.00
7048;DHT22;3565;53.254;10.352;2023-03-11T05:19:35;-0.20;1.00
7048;DHT22;3565;53.254;10.352;2023-03-11T05:22:05;-0.20;1.00
7048;DHT22;3565;53.254;10.352;2023-03-11T05:24:35;-0.30;1.00
7048;DHT22;3565;53.254;10.352;2023-03-11T05:27:04;-0.30;1.00
7048;DHT22;3565;53.254;10.352;2023-03-11T05:29:34;-0.30;1.00
7048;DHT22;3565;53.254;10.352;2023-03-11T05:32:04;-0.30;1.00
7048;DHT22;3565;53.254;10.352;2023-03-11T05:34:33;-0.40;1.00
7048;DHT22;3565;53.254;10.352;2023-03-11T05:37:02;-0.30;1.00
7048;DHT22;3565;53.254;10.352;2023-03-11T05:42:10;-0.30;1.00
7048;DHT22;3565;53.254;10.352;2023-03-11T05:44:39;-0.30;1.00
7048;DHT22;3565;53.254;10.352;2023-03-11T05:47:09;-0.40;1.00
7048;DHT22;3565;53.254;10.352;2023-03-11T05:49:38;-0.40;1.00
7048;DHT22;3565;53.254;10.352;2023-03-11T05:52:07;-0.40;1.00
7048;DHT22;3565;53.254;10.352;2023-03-11T05:57:15;-0.40;1.00
7048;DHT22;3565;53.254;10.352;2023-03-11T05:59:45;-0.40;1.00
7048;DHT22;3565;53.254;10.352;2023-03-11T06:04:54;-0.40;1.00
7048;DHT22;3565;53.254;10.352;2023-03-11T06:07:23;-0.40;1.00
7048;DHT22;3565;53.254;10.352;2023-03-11T06:09:53;-0.50;1.00
7048;DHT22;3565;53.254;10.352;2023-03-11T06:12:22;-0.50;1.00
7048;DHT22;3565;53.254;10.352;2023-03-11T06:14:53;-0.50;1.00
7048;DHT22;3565;53.254;10.352;2023-03-11T06:17:22;-0.60;1.00
7048;DHT22;3565;53.254;10.352;2023-03-11T06:19:52;-0.60;1.00
7048;DHT22;3565;53.254;10.352;2023-03-11T06:22:21;-0.60;1.00
7048;DHT22;3565;53.254;10.352;2023-03-11T06:27:29;-0.60;1.00
7048;DHT22;3565;53.254;10.352;2023-03-11T06:30:03;-0.60;1.00
7048;DHT22;3565;53.254;10.352;2023-03-11T06:32:32;-0.70;1.00
7048;DHT22;3565;53.254;10.352;2023-03-11T06:35:04;-0.60;1.00
7048;DHT22;3565;53.254;10.352;2023-03-11T06:40:16;-0.60;1.00
7048;DHT22;3565;53.254;10.352;2023-03-11T06:42:46;-0.60;1.00
7048;DHT22;3565;53.254;10.352;2023-03-11T06:45:16;-0.50;1.00
7048;DHT22;3565;53.254;10.352;2023-03-11T06:47:45;-0.40;1.00
7048;DHT22;3565;53.254;10.352;2023-03-11T06:50:15;-0.40;1.00
7048;DHT22;3565;53.254;10.352;2023-03-11T06:52:44;-0.30;1.00
7048;DHT22;3565;53.254;10.352;2023-03-11T06:55:14;-0.50;1.00
7048;DHT22;3565;53.254;10.352;2023-03-11T06:57:44;-0.40;1.00
7048;DHT22;3565;53.254;10.352;2023-03-11T07:00:15;-0.30;1.00
7048;DHT22;3565;53.254;10.352;2023-03-11T07:02:45;-0.30;1.00
7048;DHT22;3565;53.254;10.352;2023-03-11T07:05:14;-0.30;1.00
7048;DHT22;3565;53.254;10.352;2023-03-11T07:07:43;-0.30;99.90
7048;DHT22;3565;53.254;10.352;2023-03-11T07:10:13;-0.30;99.90
7048;DHT22;3565;53.254;10.352;2023-03-11T07:12:42;-0.30;99.90
7048;DHT22;3565;53.254;10.352;2023-03-11T07:15:12;-0.30;99.90
7048;DHT22;3565;53.254;10.352;2023-03-11T07:17:42;-0.20;1.00
7048;DHT22;3565;53.254;10.352;2023-03-11T07:20:13;-0.20;99.90
7048;DHT22;3565;53.254;10.352;2023-03-11T07:22:42;-0.20;99.90
7048;DHT22;3565;53.254;10.352;2023-03-11T07:25:12;-0.10;99.90
7048;DHT22;3565;53.254;10.352;2023-03-11T07:30:20;0.00;99.90
7048;DHT22;3565;53.254;10.352;2023-03-11T07:32:50;0.10;99.90
7048;DHT22;3565;53.254;10.352;2023-03-11T07:35:19;0.00;99.90
7048;DHT22;3565;53.254;10.352;2023-03-11T07:37:48;0.10;99.90
7048;DHT22;3565;53.254;10.352;2023-03-11T07:40:18;0.10;99.90
7048;DHT22;3565;53.254;10.352;2023-03-11T07:42:48;0.20;99.90
7048;DHT22;3565;53.254;10.352;2023-03-11T07:45:17;0.20;99.90
7048;DHT22;3565;53.254;10.352;2023-03-11T07:47:46;0.20;99.90
7048;DHT22;3565;53.254;10.352;2023-03-11T07:50:16;0.30;99.90
7048;DHT22;3565;53.254;10.352;2023-03-11T07:52:47;0.30;99.90
7048;DHT22;3565;53.254;10.352;2023-03-11T07:55:17;0.30;97.80
7048;DHT22;3565;53.254;10.352;2023-03-11T07:57:48;0.30;70.10
7048;DHT22;3565;53.254;10.352;2023-03-11T08:00:20;0.40;99.90
7048;DHT22;3565;53.254;10.352;2023-03-11T08:02:49;0.40;3.30
7048;DHT22;3565;53.254;10.352;2023-03-11T08:05:18;0.40;1.00
7048;DHT22;3565;53.254;10.352;2023-03-11T08:07:47;0.50;1.00
7048;DHT22;3565;53.254;10.352;2023-03-11T08:10:17;0.50;1.00
7048;DHT22;3565;53.254;10.352;2023-03-11T08:12:46;0.50;1.00
7048;DHT22;3565;53.254;10.352;2023-03-11T08:15:16;0.50;1.00
7048;DHT22;3565;53.254;10.352;2023-03-11T08:17:45;0.50;1.00
7048;DHT22;3565;53.254;10.352;2023-03-11T08:20:15;0.70;1.00
7048;DHT22;3565;53.254;10.352;2023-03-11T08:22:44;0.60;1.00
7048;DHT22;3565;53.254;10.352;2023-03-11T08:25:13;0.70;1.00
7048;DHT22;3565;53.254;10.352;2023-03-11T08:27:43;0.70;1.00
7048;DHT22;3565;53.254;10.352;2023-03-11T08:30:14;0.80;1.00
7048;DHT22;3565;53.254;10.352;2023-03-11T08:32:44;0.90;1.00
7048;DHT22;3565;53.254;10.352;2023-03-11T08:35:14;1.00;1.00
7048;DHT22;3565;53.254;10.352;2023-03-11T08:37:43;1.00;1.00
7048;DHT22;3565;53.254;10.352;2023-03-11T08:40:14;1.00;1.00
7048;DHT22;3565;53.254;10.352;2023-03-11T08:42:43;1.00;1.00
7048;DHT22;3565;53.254;10.352;2023-03-11T08:45:13;1.20;1.00
7048;DHT22;3565;53.254;10.352;2023-03-11T08:47:42;1.20;1.00
7048;DHT22;3565;53.254;10.352;2023-03-11T08:50:14;1.30;1.00
7048;DHT22;3565;53.254;10.352;2023-03-11T08:52:44;1.30;1.00
7048;DHT22;3565;53.254;10.352;2023-03-11T08:55:16;1.40;99.90
7048;DHT22;3565;53.254;10.352;2023-03-11T08:57:47;1.40;99.90
7048;DHT22;3565;53.254;10.352;2023-03-11T09:00:17;1.50;99.90
7048;DHT22;3565;53.254;10.352;2023-03-11T09:02:47;1.40;99.90
7048;DHT22;3565;53.254;10.352;2023-03-11T09:05:16;1.40;99.90
7048;DHT22;3565;53.254;10.352;2023-03-11T09:07:46;1.40;99.90
7048;DHT22;3565;53.254;10.352;2023-03-11T09:10:16;1.50;99.90
7048;DHT22;3565;53.254;10.352;2023-03-11T09:12:45;1.60;99.90
7048;DHT22;3565;53.254;10.352;2023-03-11T09:15:15;1.70;99.90
7048;DHT22;3565;53.254;10.352;2023-03-11T09:17:44;1.70;1.00
7048;DHT22;3565;53.254;10.352;2023-03-11T09:20:15;1.70;1.00
7048;DHT22;3565;53.254;10.352;2023-03-11T09:22:44;1.70;1.00
7048;DHT22;3565;53.254;10.352;2023-03-11T09:25:14;1.70;1.00
7048;DHT22;3565;53.254;10.352;2023-03-11T09:27:43;1.70;1.00
7048;DHT22;3565;53.254;10.352;2023-03-11T09:30:15;1.80;1.00
7048;DHT22;3565;53.254;10.352;2023-03-11T09:35:23;2.10;1.00
7048;DHT22;3565;53.254;10.352;2023-03-11T09:37:53;2.10;99.90
7048;DHT22;3565;53.254;10.352;2023-03-11T09:40:24;2.10;99.90
7048;DHT22;3565;53.254;10.352;2023-03-11T09:45:38;2.20;99.90
7048;DHT22;3565;53.254;10.352;2023-03-11T09:48:14;2.20;1.00
7048;DHT22;3565;53.254;10.352;2023-03-11T09:50:47;2.20;1.00
7048;DHT22;3565;53.254;10.352;2023-03-11T09:53:23;2.30;1.00
7048;DHT22;3565;53.254;10.352;2023-03-11T09:55:54;2.50;1.00
7048;DHT22;3565;53.254;10.352;2023-03-11T10:01:14;2.10;1.00
7048;DHT22;3565;53.254;10.352;2023-03-11T10:03:45;2.30;1.00
7048;DHT22;3565;53.254;10.352;2023-03-11T10:06:17;2.30;99.90
7048;DHT22;3565;53.254;10.352;2023-03-11T10:08:51;2.30;99.90
7048;DHT22;3565;53.254;10.352;2023-03-11T10:11:34;2.40;99.90
7048;DHT22;3565;53.254;10.352;2023-03-11T10:14:11;2.60;99.90
7048;DHT22;3565;53.254;10.352;2023-03-11T10:16:45;2.70;99.90
7048;DHT22;3565;53.254;10.352;2023-03-11T10:19:20;2.80;89.10
7048;DHT22;3565;53.254;10.352;2023-03-11T10:21:55;2.80;99.90
7048;DHT22;3565;53.254;10.352;2023-03-11T10:24:37;2.80;1.00
7048;DHT22;3565;53.254;10.352;2023-03-11T10:27:11;2.90;1.00
7048;DHT22;3565;53.254;10.352;2023-03-11T10:32:28;3.00;1.00
7048;DHT22;3565;53.254;10.352;2023-03-11T10:35:02;2.90;99.90
7048;DHT22;3565;53.254;10.352;2023-03-11T10:37:33;3.00;99.90
7048;DHT22;3565;53.254;10.352;2023-03-11T10:42:46;3.10;99.90
7048;DHT22;3565;53.254;10.352;2023-03-11T10:45:16;3.20;99.90
7048;DHT22;3565;53.254;10.352;2023-03-11T10:47:47;3.40;99.90
7048;DHT22;3565;53.254;10.352;2023-03-11T10:50:18;3.30;1.00
7048;DHT22;3565;53.254;10.352;2023-03-11T10:53:09;3.50;1.00
7048;DHT22;3565;53.254;10.352;2023-03-11T10:55:44;3.50;1.00
7048;DHT22;3565;53.254;10.352;2023-03-11T10:58:15;3.40;12.20
7048;DHT22;3565;53.254;10.352;2023-03-11T11:03:56;3.60;1.00
7048;DHT22;3565;53.254;10.352;2023-03-11T11:06:29;3.60;1.00
7048;DHT22;3565;53.254;10.352;2023-03-11T11:09:09;3.70;1.00
7048;DHT22;3565;53.254;10.352;2023-03-11T11:11:37;3.90;1.00
7048;DHT22;3565;53.254;10.352;2023-03-11T11:14:06;4.10;1.00
7048;DHT22;3565;53.254;10.352;2023-03-11T11:16:38;4.20;1.00
7048;DHT22;3565;53.254;10.352;2023-03-11T11:19:10;4.20;1.00
7048;DHT22;3565;53.254;10.352;2023-03-11T11:21:41;4.30;1.00
7048;DHT22;3565;53.254;10.352;2023-03-11T11:24:17;4.30;99.90
7048;DHT22;3565;53.254;10.352;2023-03-11T11:27:12;4.60;99.90
7048;DHT22;3565;53.254;10.352;2023-03-11T11:29:42;4.50;99.90
7048;DHT22;3565;53.254;10.352;2023-03-11T11:32:18;4.80;99.90
7048;DHT22;3565;53.254;10.352;2023-03-11T11:34:58;5.10;59.80
7048;DHT22;3565;53.254;10.352;2023-03-11T11:37:29;5.20;1.00
7048;DHT22;3565;53.254;10.352;2023-03-11T11:40:02;5.10;1.00
7048;DHT22;3565;53.254;10.352;2023-03-11T11:42:36;5.30;1.00
7048;DHT22;3565;53.254;10.352;2023-03-11T11:47:51;5.40;1.00
7048;DHT22;3565;53.254;10.352;2023-03-11T11:50:24;5.50;1.00
7048;DHT22;3565;53.254;10.352;2023-03-11T11:52:57;5.70;1.00
7048;DHT22;3565;53.254;10.352;2023-03-11T11:55:28;5.70;1.00
7048;DHT22;3565;53.254;10.352;2023-03-11T11:57:58;6.00;1.00
7048;DHT22;3565;53.254;10.352;2023-03-11T12:00:31;5.70;1.00
7048;DHT22;3565;53.254;10.352;2023-03-11T12:03:10;5.80;1.00
7048;DHT22;3565;53.254;10.352;2023-03-11T12:08:24;6.20;1.00
7048;DHT22;3565;53.254;10.352;2023-03-11T12:10:56;6.30;1.00
7048;DHT22;3565;53.254;10.352;2023-03-11T12:13:46;6.40;1.00
7048;DHT22;3565;53.254;10.352;2023-03-11T12:16:26;6.30;1.00
7048;DHT22;3565;53.254;10.352;2023-03-11T12:18:59;6.60;1.00
7048;DHT22;3565;53.254;10.352;2023-03-11T12:21:38;6.70;1.00
7048;DHT22;3565;53.254;10.352;2023-03-11T12:24:16;6.50;1.00
7048;DHT22;3565;53.254;10.352;2023-03-11T12:26:47;6.50;1.00
7048;DHT22;3565;53.254;10.352;2023-03-11T12:29:22;6.60;1.00
7048;DHT22;3565;53.254;10.352;2023-03-11T12:31:52;6.60;1.00
7048;DHT22;3565;53.254;10.352;2023-03-11T12:34:23;6.70;1.00
7048;DHT22;3565;53.254;10.352;2023-03-11T12:36:53;6.80;1.00
7048;DHT22;3565;53.254;10.352;2023-03-11T12:39:26;7.10;1.00
7048;DHT22;3565;53.254;10.352;2023-03-11T12:42:17;7.30;1.00
7048;DHT22;3565;53.254;10.352;2023-03-11T12:44:48;7.50;1.00
7048;DHT22;3565;53.254;10.352;2023-03-11T12:47:22;7.90;1.00
7048;DHT22;3565;53.254;10.352;2023-03-11T12:49:54;7.70;1.00
7048;DHT22;3565;53.254;10.352;2023-03-11T12:52:46;7.80;1.00
7048;DHT22;3565;53.254;10.352;2023-03-11T12:55:52;7.90;1.00
7048;DHT22;3565;53.254;10.352;2023-03-11T12:58:34;7.60;1.00
7048;DHT22;3565;53.254;10.352;2023-03-11T13:01:35;7.80;1.00
7048;DHT22;3565;53.254;10.352;2023-03-11T13:04:16;8.10;1.00
7048;DHT22;3565;53.254;10.352;2023-03-11T13:07:24;8.60;1.00
7048;DHT22;3565;53.254;10.352;2023-03-11T13:10:11;8.60;1.00
7048;DHT22;3565;53.254;10.352;2023-03-11T13:15:35;7.50;1.00
7048;DHT22;3565;53.254;10.352;2023-03-11T13:18:15;7.40;1.00
7048;DHT22;3565;53.254;10.352;2023-03-11T13:20:55;7.30;1.00
7048;DHT22;3565;53.254;10.352;2023-03-11T13:23:33;7.60;1.00
7048;DHT22;3565;53.254;10.352;2023-03-11T13:29:28;7.20;1.00
7048;DHT22;3565;53.254;10.352;2023-03-11T13:37:47;6.70;1.00
7048;DHT22;3565;53.254;10.352;2023-03-11T13:40:28;6.40;1.00
7048;DHT22;3565;53.254;10.352;2023-03-11T13:43:00;6.60;1.00
7048;DHT22;3565;53.254;10.352;2023-03-11T13:45:31;6.70;1.00
7048;DHT22;3565;53.254;10.352;2023-03-11T13:48:04;7.50;1.00
7048;DHT22;3565;53.254;10.352;2023-03-11T13:50:37;7.10;1.00
7048;DHT22;3565;53.254;10.352;2023-03-11T13:53:13;6.40;1.00
7048;DHT22;3565;53.254;10.352;2023-03-11T13:58:23;6.20;1.00
7048;DHT22;3565;53.254;10.352;2023-03-11T14:00:54;6.70;1.00
7048;DHT22;3565;53.254;10.352;2023-03-11T14:03:25;7.00;1.00
7048;DHT22;3565;53.254;10.352;2023-03-11T14:08:37;7.20;1.00
7048;DHT22;3565;53.254;10.352;2023-03-11T14:11:16;7.00;1.00
7048;DHT22;3565;53.254;10.352;2023-03-11T14:13:46;7.10;1.00
7048;DHT22;3565;53.254;10.352;2023-03-11T14:19:03;6.70;1.00
7048;DHT22;3565;53.254;10.352;2023-03-11T14:21:35;7.20;1.00
7048;DHT22;3565;53.254;10.352;2023-03-11T14:24:05;7.40;1.00
7048;DHT22;3565;53.254;10.352;2023-03-11T14:26:35;7.20;1.00
7048;DHT22;3565;53.254;10.352;2023-03-11T14:29:09;7.70;1.00
7048;DHT22;3565;53.254;10.352;2023-03-11T14:31:40;7.40;1.00
7048;DHT22;3565;53.254;10.352;2023-03-11T14:34:21;6.90;1.00
7048;DHT22;3565;53.254;10.352;2023-03-11T14:36:53;7.60;1.00
7048;DHT22;3565;53.254;10.352;2023-03-11T14:39:29;7.20;1.00
7048;DHT22;3565;53.254;10.352;2023-03-11T14:42:09;6.90;1.00
7048;DHT22;3565;53.254;10.352;2023-03-11T14:44:40;6.80;1.00
7048;DHT22;3565;53.254;10.352;2023-03-11T14:47:15;6.90;1.00
7048;DHT22;3565;53.254;10.352;2023-03-11T14:49:46;7.10;1.00
7048;DHT22;3565;53.254;10.352;2023-03-11T14:52:19;7.80;1.00
7048;DHT22;3565;53.254;10.352;2023-03-11T14:54:49;7.50;1.00
7048;DHT22;3565;53.254;10.352;2023-03-11T14:57:22;7.90;1.00
7048;DHT22;3565;53.254;10.352;2023-03-11T14:59:53;8.00;1.00
7048;DHT22;3565;53.254;10.352;2023-03-11T15:05:22;8.40;1.00
7048;DHT22;3565;53.254;10.352;2023-03-11T15:07:56;8.30;1.00
7048;DHT22;3565;53.254;10.352;2023-03-11T15:10:26;8.70;1.00
7048;DHT22;3565;53.254;10.352;2023-03-11T15:13:07;8.40;1.00
7048;DHT22;3565;53.254;10.352;2023-03-11T15:15:36;8.40;1.00
7048;DHT22;3565;53.254;10.352;2023-03-11T15:21:04;7.80;1.00
7048;DHT22;3565;53.254;10.352;2023-03-11T15:23:35;6.90;1.00
7048;DHT22;3565;53.254;10.352;2023-03-11T15:26:05;7.50;1.00
7048;DHT22;3565;53.254;10.352;2023-03-11T15:28:36;7.20;1.00
7048;DHT22;3565;53.254;10.352;2023-03-11T15:31:24;7.90;1.00
7048;DHT22;3565;53.254;10.352;2023-03-11T15:33:54;8.00;1.00
7048;DHT22;3565;53.254;10.352;2023-03-11T15:36:32;7.40;1.00
7048;DHT22;3565;53.254;10.352;2023-03-11T15:39:12;7.10;1.00
7048;DHT22;3565;53.254;10.352;2023-03-11T15:41:42;6.40;1.00
7048;DHT22;3565;53.254;10.352;2023-03-11T15:44:24;6.00;1.00
7048;DHT22;3565;53.254;10.352;2023-03-11T15:46:54;5.80;1.00
7048;DHT22;3565;53.254;10.352;2023-03-11T15:49:26;5.30;1.00
7048;DHT22;3565;53.254;10.352;2023-03-11T15:51:59;5.30;1.00
7048;DHT22;3565;53.254;10.352;2023-03-11T15:54:28;5.40;1.00
7048;DHT22;3565;53.254;10.352;2023-03-11T15:56:59;5.80;1.00
7048;DHT22;3565;53.254;10.352;2023-03-11T15:59:29;5.50;1.00
7048;DHT22;3565;53.254;10.352;2023-03-11T16:01:58;5.40;1.00
7048;DHT22;3565;53.254;10.352;2023-03-11T16:04:28;5.10;1.00
7048;DHT22;3565;53.254;10.352;2023-03-11T16:06:57;5.50;1.00
7048;DHT22;3565;53.254;10.352;2023-03-11T16:12:15;5.50;1.00
7048;DHT22;3565;53.254;10.352;2023-03-11T16:14:46;5.50;1.00
7048;DHT22;3565;53.254;10.352;2023-03-11T16:17:16;5.50;1.00
7048;DHT22;3565;53.254;10.352;2023-03-11T16:19:46;5.30;1.00
7048;DHT22;3565;53.254;10.352;2023-03-11T16:22:18;5.10;1.00
7048;DHT22;3565;53.254;10.352;2023-03-11T16:24:49;5.20;1.00
7048;DHT22;3565;53.254;10.352;2023-03-11T16:27:19;5.00;1.00
7048;DHT22;3565;53.254;10.352;2023-03-11T16:29:49;4.40;1.00
7048;DHT22;3565;53.254;10.352;2023-03-11T16:32:21;4.20;1.00
7048;DHT22;3565;53.254;10.352;2023-03-11T16:34:51;4.10;1.00
7048;DHT22;3565;53.254;10.352;2023-03-11T16:37:20;3.90;1.00
7048;DHT22;3565;53.254;10.352;2023-03-11T16:39:49;3.90;1.00
7048;DHT22;3565;53.254;10.352;2023-03-11T16:42:22;3.90;1.00
7048;DHT22;3565;53.254;10.352;2023-03-11T16:44:51;4.00;1.00
7048;DHT22;3565;53.254;10.352;2023-03-11T16:47:21;3.70;1.00
7048;DHT22;3565;53.254;10.352;2023-03-11T16:49:50;3.70;1.00
7048;DHT22;3565;53.254;10.352;2023-03-11T16:52:20;3.60;1.00
7048;DHT22;3565;53.254;10.352;2023-03-11T16:54:50;3.60;1.00
7048;DHT22;3565;53.254;10.352;2023-03-11T16:57:21;3.50;1.00
7048;DHT22;3565;53.254;10.352;2023-03-11T16:59:50;3.50;1.00
7048;DHT22;3565;53.254;10.352;2023-03-11T17:02:20;3.50;6.70
7048;DHT22;3565;53.254;10.352;2023-03-11T17:04:49;3.40;99.90
7048;DHT22;3565;53.254;10.352;2023-03-11T17:09:57;3.30;99.90
7048;DHT22;3565;53.254;10.352;2023-03-11T17:15:08;3.10;99.90
7048;DHT22;3565;53.254;10.352;2023-03-11T17:17:37;3.10;99.90
7048;DHT22;3565;53.254;10.352;2023-03-11T17:20:09;3.10;99.90
7048;DHT22;3565;53.254;10.352;2023-03-11T17:25:19;3.00;45.10
7048;DHT22;3565;53.254;10.352;2023-03-11T17:27:49;3.00;28.60
7048;DHT22;3565;53.254;10.352;2023-03-11T17:30:18;2.90;55.80
7048;DHT22;3565;53.254;10.352;2023-03-11T17:32:48;2.80;66.40
7048;DHT22;3565;53.254;10.352;2023-03-11T17:35:17;2.80;97.40
7048;DHT22;3565;53.254;10.352;2023-03-11T17:37:47;2.90;97.50
7048;DHT22;3565;53.254;10.352;2023-03-11T17:40:17;2.90;75.90
7048;DHT22;3565;53.254;10.352;2023-03-11T17:42:46;2.90;79.30
7048;DHT22;3565;53.254;10.352;2023-03-11T17:47:56;3.00;99.90
7048;DHT22;3565;53.254;10.352;2023-03-11T17:50:25;2.80;99.90
7048;DHT22;3565;53.254;10.352;2023-03-11T17:52:54;2.70;99.90
7048;DHT22;3565;53.254;10.352;2023-03-11T17:55:23;2.70;1.00
7048;DHT22;3565;53.254;10.352;2023-03-11T17:57:53;2.60;1.00
7048;DHT22;3565;53.254;10.352;2023-03-11T18:00:22;2.50;1.00
7048;DHT22;3565;53.254;10.352;2023-03-11T18:05:30;2.40;1.00
7048;DHT22;3565;53.254;10.352;2023-03-11T18:08:00;2.30;1.00
7048;DHT22;3565;53.254;10.352;2023-03-11T18:10:29;2.20;1.00
7048;DHT22;3565;53.254;10.352;2023-03-11T18:12:58;2.10;1.00
7048;DHT22;3565;53.254;10.352;2023-03-11T18:15:28;2.20;1.00
7048;DHT22;3565;53.254;10.352;2023-03-11T18:17:57;2.10;1.00
7048;DHT22;3565;53.254;10.352;2023-03-11T18:20:27;2.00;1.00
7048;DHT22;3565;53.254;10.352;2023-03-11T18:22:56;1.90;1.00